SUR4140 SAEZ-SAWC
Flight info
| Callsign | SUR4140 |
|---|---|
| Flight time | N/A |
| Altitude | 36000 |
| Route | GBE UT694 IREMO UP664 CRV UW48 BOKUK |
| Aircraft | B738/M-V/N |
Departure
| Time | 2026-04-28 11:22 |
|---|---|
| Airport | Ezeiza International Airport - Ministro Pistarini (SAEZ) |
Arrival
| Time | N/A |
|---|---|
| Airport | El Calafate - Commander Armando Tola International Airport (SAWC) |
| Time | Latitude | Longitude | Altitude | Speed | Heading |
|---|---|---|---|---|---|
| 2026-04-28 11:12 | -34.81648 | -58.54062 | 74 ft | 0 kts | 314° |
| 2026-04-28 11:14 | -34.81659 | -58.54048 | 63 ft | 2 kts | 314° |
| 2026-04-28 11:14 | -34.81670 | -58.54034 | 68 ft | 2 kts | 314° |
| 2026-04-28 11:15 | -34.81682 | -58.54020 | 63 ft | 2 kts | 314° |
| 2026-04-28 11:15 | -34.81693 | -58.54006 | 63 ft | 2 kts | 314° |
| 2026-04-28 11:15 | -34.81705 | -58.53991 | 65 ft | 2 kts | 314° |
| 2026-04-28 11:15 | -34.81716 | -58.53977 | 69 ft | 2 kts | 314° |
| 2026-04-28 11:16 | -34.81727 | -58.53963 | 68 ft | 2 kts | 289° |
| 2026-04-28 11:16 | -34.81727 | -58.53952 | 68 ft | 1 kts | 239° |
| 2026-04-28 11:18 | -34.81739 | -58.53976 | 67 ft | 8 kts | 239° |
| 2026-04-28 11:18 | -34.81767 | -58.54081 | 71 ft | 18 kts | 270° |
| 2026-04-28 11:19 | -34.81765 | -58.54247 | 66 ft | 20 kts | 274° |
| 2026-04-28 11:19 | -34.81753 | -58.54412 | 69 ft | 19 kts | 275° |
| 2026-04-28 11:19 | -34.81757 | -58.54571 | 74 ft | 19 kts | 258° |
| 2026-04-28 11:19 | -34.81778 | -58.54722 | 74 ft | 18 kts | 268° |
| 2026-04-28 11:20 | -34.81762 | -58.54870 | 69 ft | 17 kts | 281° |
| 2026-04-28 11:20 | -34.81734 | -58.55027 | 71 ft | 20 kts | 283° |
| 2026-04-28 11:20 | -34.81704 | -58.55189 | 66 ft | 19 kts | 282° |
| 2026-04-28 11:20 | -34.81733 | -58.55332 | 74 ft | 19 kts | 215° |
| 2026-04-28 11:21 | -34.81853 | -58.55314 | 67 ft | 18 kts | 154° |
| 2026-04-28 11:21 | -34.81928 | -58.55206 | 71 ft | 17 kts | 101° |
| 2026-04-28 11:21 | -34.81951 | -58.55063 | 71 ft | 19 kts | 103° |
| 2026-04-28 11:21 | -34.82052 | -58.54518 | 70 ft | 115 kts | 102° |
| 2026-04-28 11:22 | -34.82282 | -58.53230 | 86 ft | 191 kts | 102° |
| 2026-04-28 11:22 | -34.82582 | -58.51538 | 699 ft | 214 kts | 104° |
| 2026-04-28 11:22 | -34.82983 | -58.49748 | 1462 ft | 227 kts | 106° |
| 2026-04-28 11:22 | -34.83489 | -58.47871 | 2268 ft | 239 kts | 110° |
| 2026-04-28 11:23 | -34.84150 | -58.46024 | 2829 ft | 243 kts | 134° |
| 2026-04-28 11:23 | -34.85531 | -58.44871 | 3701 ft | 241 kts | 149° |
| 2026-04-28 11:23 | -34.86723 | -58.43440 | 4491 ft | 245 kts | 122° |
| 2026-04-28 11:23 | -34.87576 | -58.41636 | 5278 ft | 247 kts | 119° |
| 2026-04-28 11:24 | -34.88582 | -58.39939 | 6006 ft | 251 kts | 139° |
| 2026-04-28 11:24 | -34.90074 | -58.38847 | 6774 ft | 252 kts | 160° |
| 2026-04-28 11:24 | -34.91796 | -58.38456 | 7502 ft | 255 kts | 181° |
| 2026-04-28 11:24 | -34.93532 | -58.38881 | 8221 ft | 257 kts | 204° |
| 2026-04-28 11:25 | -34.94969 | -58.40084 | 8916 ft | 258 kts | 224° |
| 2026-04-28 11:25 | -34.96128 | -58.41761 | 9607 ft | 261 kts | 237° |
| 2026-04-28 11:25 | -34.97047 | -58.43707 | 10187 ft | 273 kts | 243° |
| 2026-04-28 11:25 | -34.97889 | -58.45904 | 10440 ft | 300 kts | 248° |
| 2026-04-28 11:26 | -34.98589 | -58.48417 | 10664 ft | 327 kts | 255° |
| 2026-04-28 11:26 | -34.99054 | -58.51233 | 10903 ft | 350 kts | 263° |
| 2026-04-28 11:26 | -34.99344 | -58.54232 | 11494 ft | 361 kts | 261° |
| 2026-04-28 11:26 | -35.00067 | -58.57166 | 12231 ft | 365 kts | 240° |
| 2026-04-28 11:27 | -35.01765 | -58.59454 | 13061 ft | 368 kts | 214° |
| 2026-04-28 11:27 | -35.04127 | -58.60632 | 13831 ft | 372 kts | 189° |
| 2026-04-28 11:27 | -35.06711 | -58.60465 | 14547 ft | 378 kts | 163° |
| 2026-04-28 11:27 | -35.09024 | -58.58955 | 15245 ft | 383 kts | 139° |
| 2026-04-28 11:28 | -35.10653 | -58.56389 | 15952 ft | 386 kts | 119° |
| 2026-04-28 11:28 | -35.12085 | -58.53604 | 16594 ft | 391 kts | 132° |
| 2026-04-28 11:28 | -35.14278 | -58.51650 | 17200 ft | 395 kts | 158° |
| 2026-04-28 11:28 | -35.16953 | -58.50980 | 17875 ft | 396 kts | 181° |
| 2026-04-28 11:29 | -35.19668 | -58.51269 | 18529 ft | 399 kts | 188° |
| 2026-04-28 11:29 | -35.22433 | -58.51737 | 19099 ft | 404 kts | 187° |
| 2026-04-28 11:29 | -35.25244 | -58.52034 | 19658 ft | 408 kts | 183° |
| 2026-04-28 11:29 | -35.28094 | -58.52073 | 20242 ft | 411 kts | 179° |
| 2026-04-28 11:30 | -35.30876 | -58.51920 | 20790 ft | 415 kts | 176° |
| 2026-04-28 11:30 | -35.36677 | -58.51288 | 21848 ft | 422 kts | 174° |
| 2026-04-28 11:30 | -35.39602 | -58.50912 | 22355 ft | 425 kts | 174° |
| 2026-04-28 11:31 | -35.42553 | -58.50529 | 22848 ft | 428 kts | 174° |
| 2026-04-28 11:31 | -35.45529 | -58.50148 | 23324 ft | 431 kts | 174° |
| 2026-04-28 11:31 | -35.48527 | -58.49769 | 23782 ft | 434 kts | 174° |
| 2026-04-28 11:31 | -35.51535 | -58.49394 | 24234 ft | 437 kts | 174° |
| 2026-04-28 11:32 | -35.54573 | -58.49018 | 24660 ft | 440 kts | 174° |
| 2026-04-28 11:32 | -35.57622 | -58.48640 | 25077 ft | 443 kts | 174° |
| 2026-04-28 11:32 | -35.60708 | -58.48258 | 25484 ft | 445 kts | 174° |
| 2026-04-28 11:32 | -35.63790 | -58.47875 | 25874 ft | 448 kts | 174° |
| 2026-04-28 11:33 | -35.66906 | -58.47488 | 26253 ft | 451 kts | 174° |
| 2026-04-28 11:33 | -35.70028 | -58.47100 | 26618 ft | 453 kts | 174° |
| 2026-04-28 11:33 | -35.73183 | -58.46781 | 26968 ft | 456 kts | 178° |
| 2026-04-28 11:33 | -35.76361 | -58.46924 | 27290 ft | 458 kts | 189° |
| 2026-04-28 11:34 | -35.79364 | -58.48181 | 27590 ft | 460 kts | 210° |
| 2026-04-28 11:34 | -35.82009 | -58.50402 | 27982 ft | 460 kts | 218° |
| 2026-04-28 11:34 | -35.84467 | -58.52865 | 28295 ft | 462 kts | 220° |
| 2026-04-28 11:34 | -35.86980 | -58.55431 | 28588 ft | 465 kts | 219° |
| 2026-04-28 11:35 | -35.89570 | -58.57828 | 28980 ft | 465 kts | 215° |
| 2026-04-28 11:35 | -35.92262 | -58.60003 | 29450 ft | 462 kts | 212° |
| 2026-04-28 11:35 | -35.94969 | -58.62041 | 29911 ft | 460 kts | 211° |
| 2026-04-28 11:35 | -35.97721 | -58.64069 | 30308 ft | 460 kts | 211° |
| 2026-04-28 11:36 | -36.00427 | -58.66070 | 30661 ft | 460 kts | 211° |
| 2026-04-28 11:36 | -36.03128 | -58.68096 | 31036 ft | 459 kts | 212° |
| 2026-04-28 11:36 | -36.05877 | -58.70187 | 31446 ft | 458 kts | 212° |
| 2026-04-28 11:36 | -36.08548 | -58.72239 | 31816 ft | 457 kts | 212° |
| 2026-04-28 11:37 | -36.11257 | -58.74334 | 32166 ft | 457 kts | 212° |
| 2026-04-28 11:37 | -36.13942 | -58.76419 | 32514 ft | 456 kts | 212° |
| 2026-04-28 11:37 | -36.16595 | -58.78482 | 32867 ft | 455 kts | 212° |
| 2026-04-28 11:37 | -36.19304 | -58.80590 | 33217 ft | 455 kts | 212° |
| 2026-04-28 11:38 | -36.21826 | -58.82552 | 33526 ft | 454 kts | 212° |
| 2026-04-28 11:38 | -36.24503 | -58.84636 | 33845 ft | 454 kts | 212° |
| 2026-04-28 11:38 | -36.27176 | -58.86717 | 34171 ft | 453 kts | 212° |
| 2026-04-28 11:38 | -36.29844 | -58.88796 | 34486 ft | 452 kts | 212° |
| 2026-04-28 11:39 | -36.32503 | -58.90869 | 34784 ft | 452 kts | 212° |
| 2026-04-28 11:39 | -36.35155 | -58.92939 | 35074 ft | 451 kts | 212° |
| 2026-04-28 11:39 | -36.37812 | -58.95014 | 35376 ft | 450 kts | 212° |
| 2026-04-28 11:39 | -36.40465 | -58.97088 | 35657 ft | 450 kts | 212° |
| 2026-04-28 11:40 | -36.42967 | -58.99045 | 35912 ft | 449 kts | 212° |
| 2026-04-28 11:40 | -36.45612 | -59.01116 | 35995 ft | 453 kts | 212° |
| 2026-04-28 11:40 | -36.50956 | -59.05306 | 35998 ft | 454 kts | 212° |
| 2026-04-28 11:41 | -36.56180 | -59.09407 | 35991 ft | 447 kts | 212° |
| 2026-04-28 11:41 | -36.61444 | -59.13547 | 36005 ft | 447 kts | 212° |
| 2026-04-28 11:42 | -36.66697 | -59.17685 | 36002 ft | 447 kts | 212° |
| 2026-04-28 11:42 | -36.71965 | -59.21842 | 36000 ft | 448 kts | 212° |
| 2026-04-28 11:43 | -36.77226 | -59.26001 | 36003 ft | 448 kts | 212° |
| 2026-04-28 11:43 | -36.82496 | -59.30173 | 36002 ft | 449 kts | 212° |
| 2026-04-28 11:44 | -36.87773 | -59.34357 | 36001 ft | 450 kts | 212° |
| 2026-04-28 11:44 | -36.93063 | -59.38559 | 36000 ft | 450 kts | 213° |
| 2026-04-28 11:45 | -36.98342 | -59.42759 | 36001 ft | 451 kts | 213° |
| 2026-04-28 11:45 | -37.03630 | -59.46974 | 35999 ft | 451 kts | 213° |
| 2026-04-28 11:46 | -37.08928 | -59.51205 | 36000 ft | 451 kts | 213° |
| 2026-04-28 11:46 | -37.14183 | -59.55407 | 36000 ft | 451 kts | 213° |
| 2026-04-28 11:47 | -37.19464 | -59.59656 | 36000 ft | 451 kts | 213° |
| 2026-04-28 11:47 | -37.24676 | -59.64040 | 36002 ft | 451 kts | 214° |
| 2026-04-28 11:48 | -37.29862 | -59.68469 | 35999 ft | 451 kts | 214° |
| 2026-04-28 11:48 | -37.35062 | -59.72898 | 36003 ft | 451 kts | 214° |
| 2026-04-28 11:49 | -37.40257 | -59.77313 | 35999 ft | 451 kts | 214° |
| 2026-04-28 11:49 | -37.45451 | -59.81729 | 36004 ft | 451 kts | 214° |
| 2026-04-28 11:50 | -37.50649 | -59.86155 | 36000 ft | 451 kts | 214° |
| 2026-04-28 11:50 | -37.55837 | -59.90583 | 36004 ft | 450 kts | 214° |
| 2026-04-28 11:51 | -37.61022 | -59.95014 | 36005 ft | 450 kts | 214° |
| 2026-04-28 11:51 | -37.66204 | -59.99452 | 36006 ft | 450 kts | 214° |
| 2026-04-28 11:52 | -37.71389 | -60.03899 | 36004 ft | 450 kts | 214° |
| 2026-04-28 11:52 | -37.76567 | -60.08348 | 36000 ft | 450 kts | 214° |
| 2026-04-28 11:53 | -37.81713 | -60.12777 | 36004 ft | 450 kts | 214° |
| 2026-04-28 11:53 | -37.86886 | -60.17238 | 36000 ft | 450 kts | 214° |
| 2026-04-28 11:54 | -37.92059 | -60.21705 | 36001 ft | 450 kts | 214° |
| 2026-04-28 11:54 | -37.97229 | -60.26179 | 36004 ft | 450 kts | 214° |
| 2026-04-28 11:55 | -38.02406 | -60.30666 | 36000 ft | 450 kts | 214° |
| 2026-04-28 11:55 | -38.07574 | -60.35154 | 36001 ft | 450 kts | 214° |
| 2026-04-28 11:56 | -38.12740 | -60.39647 | 36002 ft | 450 kts | 214° |
| 2026-04-28 11:56 | -38.17912 | -60.44130 | 35999 ft | 450 kts | 214° |
| 2026-04-28 11:57 | -38.23133 | -60.48551 | 36002 ft | 450 kts | 214° |
| 2026-04-28 11:57 | -38.28351 | -60.52956 | 36000 ft | 450 kts | 214° |
| 2026-04-28 11:58 | -38.33557 | -60.57370 | 36005 ft | 450 kts | 214° |
| 2026-04-28 11:58 | -38.38771 | -60.61810 | 36001 ft | 450 kts | 214° |
| 2026-04-28 11:59 | -38.43973 | -60.66250 | 36000 ft | 450 kts | 214° |
| 2026-04-28 11:59 | -38.49172 | -60.70695 | 36001 ft | 450 kts | 214° |
| 2026-04-28 12:00 | -38.54373 | -60.75150 | 35999 ft | 450 kts | 214° |
| 2026-04-28 12:00 | -38.59567 | -60.79605 | 36002 ft | 450 kts | 214° |
| 2026-04-28 12:01 | -38.64760 | -60.84069 | 36001 ft | 450 kts | 214° |
| 2026-04-28 12:01 | -38.69958 | -60.88544 | 36001 ft | 450 kts | 214° |
| 2026-04-28 12:02 | -38.75146 | -60.93019 | 36001 ft | 449 kts | 214° |
| 2026-04-28 12:02 | -38.80332 | -60.97499 | 36004 ft | 449 kts | 214° |
| 2026-04-28 12:03 | -38.85475 | -61.01952 | 36000 ft | 449 kts | 214° |
| 2026-04-28 12:03 | -38.90569 | -61.06368 | 36000 ft | 449 kts | 214° |
| 2026-04-28 12:04 | -38.95745 | -61.10865 | 36002 ft | 449 kts | 214° |
| 2026-04-28 12:04 | -39.00917 | -61.15365 | 36003 ft | 449 kts | 214° |
| 2026-04-28 12:05 | -39.06093 | -61.19878 | 36000 ft | 449 kts | 214° |
| 2026-04-28 12:05 | -39.10391 | -61.23631 | 36001 ft | 449 kts | 214° |